Aérodrome :
LOGIN :

S'inscrire | Disclaimer

   EN    FR    IT 

 










Légende :    VFR   VFR Marginal   IFR   IFR Intensif   IFR Très Intensif
Visi : 
Plafond : 
>= 8 km
>= 3000ft
5 à 8 km
1000 à 3000 ft
1500m à 5 km
500 à 1000 ft
800 à 1500m
200 à 500 ft
< 800m
< 200 ft
Symboles :   Orages  Brouillard  Fortes neiges  Fortes précipitations  Vent > 20 kt
SIGMETs :   Divers  Orages  Givrage  Turbulence  Onde Orograph.  Cendres Volcan.







- Altitude de l'aérodrome : 784 ft
- Code IATA : TZL


LQTZ - Tuzla

DERNIER METAR :
  • 170400Z VRB01KT 5000 1500W BR SCT001 08/08 Q1015

METARs EXPIRÉS :
  • 170330Z VRB01KT 1800 BR SCT001 08/08 Q1015
  • 170300Z VRB01KT 2000 BR SCT001 09/09 Q1015
  • 170230Z VRB01KT 8000 NSC 09/09 Q1015

TAF TAF LQTZ
Valide du 16 à 18h jusqu'au 17 à 18h UTC


161700Z 1618/1718 VRB02KT CAVOK TX28/1713Z TN11/1704Z
PROB40
TEMPO 1703/1706 2000 BR
Pas de NOTAMs connus pour ce terrain.



MET'MAP, la Météo Aéronautique d'un coup d'oeil ! - Copyright ORBIFLY Décembre 2007 - Disclaimer

ORBIFLY MET'MAP TEAM :

Programmation & Développement : Alexandra Zaïnal
Conception & Développement : Baudouin d'Aumeries
Co-Programmation & Développement : Marc-Olivier Méhu
Soutien technique & logistique : Manuel Goepfert

Contact : metmap@orbifly.com




SOURCES & CREDITS :

   NOAA